This is the latest recevied weather packets stored in our database for station/object OK1KZE-6. If no packets are shown the sender has not sent any weather packets the latest 10 day(s).
| Time | Temp. | Humidity | Pressure | Rain* | Wind** | Luminosity | Snow |
|---|---|---|---|---|---|---|---|
| 1777965308 | 16.67° C | 74% | 1010.9 hPa | - | - | - | - |
| 1777965007 | 16.67° C | 74% | 1011 hPa | - | - | - | - |
| 1777964709 | 16.67° C | 72% | 1011 hPa | - | - | - | - |
| 1777964408 | 16.11° C | 76% | 1011.1 hPa | - | - | - | - |
| 1777964108 | 16.11° C | 76% | 1011.4 hPa | - | - | - | - |
| 1777963808 | 15.56° C | 76% | 1011 hPa | - | - | - | - |
| 1777963507 | 15.56° C | 76% | 1011.3 hPa | - | - | - | - |
| 1777963208 | -1.11° C | 100% | 1011.2 hPa | - | - | - | - |
| 1777962908 | 16.11° C | 76% | 1011.1 hPa | - | - | - | - |
| 1777962608 | 16.11° C | 76% | 1011.2 hPa | - | - | - | - |
| 1777962307 | 16.11° C | 74% | 1011.3 hPa | - | - | - | - |
| 1777962008 | 15.56° C | 78% | 1011.3 hPa | - | - | - | - |
| 1777961709 | 15.56° C | 77% | 1011.1 hPa | - | - | - | - |
| 1777961407 | 15° C | 79% | 1011.3 hPa | - | - | - | - |
| 1777961107 | 15° C | 80% | 1011.2 hPa | - | - | - | - |
| 1777960808 | 14.44° C | 82% | 1011.3 hPa | - | - | - | - |
| 1777960508 | 13.89° C | 86% | 1011.2 hPa | - | - | - | - |
| 1777960208 | 13.89° C | 86% | 1011.5 hPa | - | - | - | - |
| 1777959908 | 13.89° C | 84% | 1011.2 hPa | - | - | - | - |
| 1777959608 | 13.33° C | 87% | 1011.3 hPa | - | - | - | - |
| 1777959307 | 13.33° C | 85% | 1011.3 hPa | - | - | - | - |
| 1777959008 | 13.89° C | 84% | 1011.2 hPa | - | - | - | - |
| 1777958707 | 14.44° C | 82% | 1011.2 hPa | - | - | - | - |
| 1777958108 | 15° C | 80% | 1011.1 hPa | - | - | - | - |
| 1777957808 | 15° C | 78% | 1011.1 hPa | - | - | - | - |
* Rain since midnight (hover to see other rain measurements)
** Current wind speed in m/s (hover to see current wind gust speed)